sensor_id;sensor_type;location;lat;lon;timestamp;temperature;humidity
10282;DHT22;5186;59.472;18.048;2022-07-04T00:00:07;17.90;99.90
10282;DHT22;5186;59.472;18.048;2022-07-04T00:02:33;17.90;99.90
10282;DHT22;5186;59.472;18.048;2022-07-04T00:04:59;17.90;99.90
10282;DHT22;5186;59.472;18.048;2022-07-04T00:07:25;17.90;99.90
10282;DHT22;5186;59.472;18.048;2022-07-04T00:09:51;17.90;99.90
10282;DHT22;5186;59.472;18.048;2022-07-04T00:12:16;17.90;99.90
10282;DHT22;5186;59.472;18.048;2022-07-04T00:14:42;17.90;99.90
10282;DHT22;5186;59.472;18.048;2022-07-04T00:17:08;17.90;99.90
10282;DHT22;5186;59.472;18.048;2022-07-04T00:19:34;17.90;99.90
10282;DHT22;5186;59.472;18.048;2022-07-04T00:21:59;17.90;99.90
10282;DHT22;5186;59.472;18.048;2022-07-04T00:24:25;17.90;99.90
10282;DHT22;5186;59.472;18.048;2022-07-04T00:26:50;17.80;99.90
10282;DHT22;5186;59.472;18.048;2022-07-04T00:29:16;17.80;99.90
10282;DHT22;5186;59.472;18.048;2022-07-04T00:31:42;17.80;99.90
10282;DHT22;5186;59.472;18.048;2022-07-04T00:34:07;17.80;99.90
10282;DHT22;5186;59.472;18.048;2022-07-04T00:36:33;17.80;99.90
10282;DHT22;5186;59.472;18.048;2022-07-04T00:38:59;17.70;99.90
10282;DHT22;5186;59.472;18.048;2022-07-04T00:41:24;17.80;99.90
10282;DHT22;5186;59.472;18.048;2022-07-04T00:44:04;17.80;99.90
10282;DHT22;5186;59.472;18.048;2022-07-04T00:46:30;17.70;99.90
10282;DHT22;5186;59.472;18.048;2022-07-04T00:48:56;17.70;99.90
10282;DHT22;5186;59.472;18.048;2022-07-04T00:51:23;17.70;99.90
10282;DHT22;5186;59.472;18.048;2022-07-04T00:53:52;17.70;99.90
10282;DHT22;5186;59.472;18.048;2022-07-04T00:56:18;17.60;99.90
10282;DHT22;5186;59.472;18.048;2022-07-04T00:58:44;17.60;99.90
10282;DHT22;5186;59.472;18.048;2022-07-04T01:01:10;17.60;99.90
10282;DHT22;5186;59.472;18.048;2022-07-04T01:03:36;17.60;99.90
10282;DHT22;5186;59.472;18.048;2022-07-04T01:06:02;17.60;99.90
10282;DHT22;5186;59.472;18.048;2022-07-04T01:08:28;17.60;99.90
10282;DHT22;5186;59.472;18.048;2022-07-04T01:10:54;17.60;99.90
10282;DHT22;5186;59.472;18.048;2022-07-04T01:13:20;17.50;99.90
10282;DHT22;5186;59.472;18.048;2022-07-04T01:15:46;17.50;99.90
10282;DHT22;5186;59.472;18.048;2022-07-04T01:18:12;17.60;99.90
10282;DHT22;5186;59.472;18.048;2022-07-04T01:20:38;17.60;99.90
10282;DHT22;5186;59.472;18.048;2022-07-04T01:23:04;17.50;99.90
10282;DHT22;5186;59.472;18.048;2022-07-04T01:25:30;17.50;99.90
10282;DHT22;5186;59.472;18.048;2022-07-04T01:27:57;17.50;99.90
10282;DHT22;5186;59.472;18.048;2022-07-04T01:30:22;17.50;99.90
10282;DHT22;5186;59.472;18.048;2022-07-04T01:32:48;17.50;99.90
10282;DHT22;5186;59.472;18.048;2022-07-04T01:35:14;17.40;99.90
10282;DHT22;5186;59.472;18.048;2022-07-04T01:37:39;17.40;99.90
10282;DHT22;5186;59.472;18.048;2022-07-04T01:40:06;17.40;99.90
10282;DHT22;5186;59.472;18.048;2022-07-04T01:42:31;17.40;99.90
10282;DHT22;5186;59.472;18.048;2022-07-04T01:44:57;17.40;99.90
10282;DHT22;5186;59.472;18.048;2022-07-04T01:47:23;17.40;99.90
10282;DHT22;5186;59.472;18.048;2022-07-04T01:49:48;17.40;99.90
10282;DHT22;5186;59.472;18.048;2022-07-04T01:52:14;17.40;99.90
10282;DHT22;5186;59.472;18.048;2022-07-04T01:54:41;17.40;99.90
10282;DHT22;5186;59.472;18.048;2022-07-04T01:57:07;17.40;99.90
10282;DHT22;5186;59.472;18.048;2022-07-04T01:59:33;17.30;99.90
10282;DHT22;5186;59.472;18.048;2022-07-04T02:02:17;17.40;99.90
10282;DHT22;5186;59.472;18.048;2022-07-04T02:04:43;17.30;99.90
10282;DHT22;5186;59.472;18.048;2022-07-04T02:07:08;17.30;99.90
10282;DHT22;5186;59.472;18.048;2022-07-04T02:09:34;17.30;99.90
10282;DHT22;5186;59.472;18.048;2022-07-04T02:12:00;17.30;99.90
10282;DHT22;5186;59.472;18.048;2022-07-04T02:14:44;17.30;99.90
10282;DHT22;5186;59.472;18.048;2022-07-04T02:17:10;17.30;99.90
10282;DHT22;5186;59.472;18.048;2022-07-04T02:19:36;17.30;99.90
10282;DHT22;5186;59.472;18.048;2022-07-04T02:22:02;17.30;99.90
10282;DHT22;5186;59.472;18.048;2022-07-04T02:24:28;17.30;99.90
10282;DHT22;5186;59.472;18.048;2022-07-04T02:26:54;17.30;99.90
10282;DHT22;5186;59.472;18.048;2022-07-04T02:29:19;17.30;99.90
10282;DHT22;5186;59.472;18.048;2022-07-04T02:31:45;17.30;99.90
10282;DHT22;5186;59.472;18.048;2022-07-04T02:34:11;17.30;99.90
10282;DHT22;5186;59.472;18.048;2022-07-04T02:36:37;17.30;99.90
10282;DHT22;5186;59.472;18.048;2022-07-04T02:39:03;17.30;99.90
10282;DHT22;5186;59.472;18.048;2022-07-04T02:41:31;17.30;99.90
10282;DHT22;5186;59.472;18.048;2022-07-04T02:43:56;17.40;99.90
10282;DHT22;5186;59.472;18.048;2022-07-04T02:46:23;17.30;99.90
10282;DHT22;5186;59.472;18.048;2022-07-04T02:48:49;17.40;99.90
10282;DHT22;5186;59.472;18.048;2022-07-04T02:51:14;17.30;99.90
10282;DHT22;5186;59.472;18.048;2022-07-04T02:53:40;17.40;99.90
10282;DHT22;5186;59.472;18.048;2022-07-04T02:56:06;17.40;99.90
10282;DHT22;5186;59.472;18.048;2022-07-04T02:58:32;17.40;99.90
10282;DHT22;5186;59.472;18.048;2022-07-04T03:00:58;17.40;99.90
10282;DHT22;5186;59.472;18.048;2022-07-04T03:03:24;17.40;99.90
10282;DHT22;5186;59.472;18.048;2022-07-04T03:05:50;17.40;99.90
10282;DHT22;5186;59.472;18.048;2022-07-04T03:08:15;17.40;99.90
10282;DHT22;5186;59.472;18.048;2022-07-04T03:10:41;17.40;99.90
10282;DHT22;5186;59.472;18.048;2022-07-04T03:13:07;17.50;99.90
10282;DHT22;5186;59.472;18.048;2022-07-04T03:15:32;17.50;99.90
10282;DHT22;5186;59.472;18.048;2022-07-04T03:17:58;17.50;99.90
10282;DHT22;5186;59.472;18.048;2022-07-04T03:20:23;17.50;99.90
10282;DHT22;5186;59.472;18.048;2022-07-04T03:22:49;17.50;99.90
10282;DHT22;5186;59.472;18.048;2022-07-04T03:25:17;17.50;99.90
10282;DHT22;5186;59.472;18.048;2022-07-04T03:27:42;17.50;99.90
10282;DHT22;5186;59.472;18.048;2022-07-04T03:30:08;17.50;99.90
10282;DHT22;5186;59.472;18.048;2022-07-04T03:32:34;17.60;99.90
10282;DHT22;5186;59.472;18.048;2022-07-04T03:35:00;17.60;99.90
10282;DHT22;5186;59.472;18.048;2022-07-04T03:37:25;17.60;99.90
10282;DHT22;5186;59.472;18.048;2022-07-04T03:39:51;17.70;99.90
10282;DHT22;5186;59.472;18.048;2022-07-04T03:42:17;17.70;99.90
10282;DHT22;5186;59.472;18.048;2022-07-04T03:44:42;17.80;99.90
10282;DHT22;5186;59.472;18.048;2022-07-04T03:47:08;17.80;99.90
10282;DHT22;5186;59.472;18.048;2022-07-04T03:49:33;17.80;99.90
10282;DHT22;5186;59.472;18.048;2022-07-04T03:51:59;17.80;99.90
10282;DHT22;5186;59.472;18.048;2022-07-04T03:54:25;17.90;99.90
10282;DHT22;5186;59.472;18.048;2022-07-04T03:56:54;17.90;99.90
10282;DHT22;5186;59.472;18.048;2022-07-04T03:59:19;18.00;99.90
10282;DHT22;5186;59.472;18.048;2022-07-04T04:01:45;18.10;99.90
10282;DHT22;5186;59.472;18.048;2022-07-04T04:04:11;18.10;99.90
10282;DHT22;5186;59.472;18.048;2022-07-04T04:06:55;18.20;99.90
10282;DHT22;5186;59.472;18.048;2022-07-04T04:09:21;18.20;99.90
10282;DHT22;5186;59.472;18.048;2022-07-04T04:11:47;18.30;99.90
10282;DHT22;5186;59.472;18.048;2022-07-04T04:14:13;18.30;99.90
10282;DHT22;5186;59.472;18.048;2022-07-04T04:16:39;18.40;99.90
10282;DHT22;5186;59.472;18.048;2022-07-04T04:19:04;18.50;99.90
10282;DHT22;5186;59.472;18.048;2022-07-04T04:21:30;18.50;99.90
10282;DHT22;5186;59.472;18.048;2022-07-04T04:23:55;18.50;99.90
10282;DHT22;5186;59.472;18.048;2022-07-04T04:26:21;18.60;99.90
10282;DHT22;5186;59.472;18.048;2022-07-04T04:28:47;18.60;99.90
10282;DHT22;5186;59.472;18.048;2022-07-04T04:31:12;18.70;99.90
10282;DHT22;5186;59.472;18.048;2022-07-04T04:33:40;18.70;99.90
10282;DHT22;5186;59.472;18.048;2022-07-04T04:36:06;18.80;99.90
10282;DHT22;5186;59.472;18.048;2022-07-04T04:38:31;18.80;99.90
10282;DHT22;5186;59.472;18.048;2022-07-04T04:40:57;18.90;99.90
10282;DHT22;5186;59.472;18.048;2022-07-04T04:43:23;19.00;99.90
10282;DHT22;5186;59.472;18.048;2022-07-04T04:45:49;19.00;99.90
10282;DHT22;5186;59.472;18.048;2022-07-04T04:48:14;19.10;99.90
10282;DHT22;5186;59.472;18.048;2022-07-04T04:50:41;19.10;99.90
10282;DHT22;5186;59.472;18.048;2022-07-04T04:53:06;19.20;99.90
10282;DHT22;5186;59.472;18.048;2022-07-04T04:55:32;19.20;99.90
10282;DHT22;5186;59.472;18.048;2022-07-04T04:57:58;19.30;99.90
10282;DHT22;5186;59.472;18.048;2022-07-04T05:00:23;19.40;99.90
10282;DHT22;5186;59.472;18.048;2022-07-04T05:02:49;19.40;99.90
10282;DHT22;5186;59.472;18.048;2022-07-04T05:05:14;19.40;99.90
10282;DHT22;5186;59.472;18.048;2022-07-04T05:07:40;19.50;99.90
10282;DHT22;5186;59.472;18.048;2022-07-04T05:10:06;19.60;99.90
10282;DHT22;5186;59.472;18.048;2022-07-04T05:12:32;19.60;99.90
10282;DHT22;5186;59.472;18.048;2022-07-04T05:14:58;19.70;99.90
10282;DHT22;5186;59.472;18.048;2022-07-04T05:17:23;19.80;99.90
10282;DHT22;5186;59.472;18.048;2022-07-04T05:19:49;19.90;99.90
10282;DHT22;5186;59.472;18.048;2022-07-04T05:22:16;19.90;99.90
10282;DHT22;5186;59.472;18.048;2022-07-04T05:24:41;19.90;99.90
10282;DHT22;5186;59.472;18.048;2022-07-04T05:27:07;20.00;99.90
10282;DHT22;5186;59.472;18.048;2022-07-04T05:29:33;20.10;99.90
10282;DHT22;5186;59.472;18.048;2022-07-04T05:31:59;20.20;99.90
10282;DHT22;5186;59.472;18.048;2022-07-04T05:34:25;20.30;99.90
10282;DHT22;5186;59.472;18.048;2022-07-04T05:36:51;20.30;99.90
10282;DHT22;5186;59.472;18.048;2022-07-04T05:39:16;20.40;99.90
10282;DHT22;5186;59.472;18.048;2022-07-04T05:41:42;20.40;99.90
10282;DHT22;5186;59.472;18.048;2022-07-04T05:44:08;20.50;99.90
10282;DHT22;5186;59.472;18.048;2022-07-04T05:46:33;20.50;99.90
10282;DHT22;5186;59.472;18.048;2022-07-04T05:48:59;20.60;99.90
10282;DHT22;5186;59.472;18.048;2022-07-04T05:51:25;20.60;99.90
10282;DHT22;5186;59.472;18.048;2022-07-04T05:53:50;20.70;99.90
10282;DHT22;5186;59.472;18.048;2022-07-04T05:56:16;20.80;99.90
10282;DHT22;5186;59.472;18.048;2022-07-04T05:58:42;20.80;99.90
10282;DHT22;5186;59.472;18.048;2022-07-04T06:01:08;20.90;99.90
10282;DHT22;5186;59.472;18.048;2022-07-04T06:03:36;20.90;99.90
10282;DHT22;5186;59.472;18.048;2022-07-04T06:06:03;21.00;99.90
10282;DHT22;5186;59.472;18.048;2022-07-04T06:08:29;21.00;99.90
10282;DHT22;5186;59.472;18.048;2022-07-04T06:10:55;21.10;99.90
10282;DHT22;5186;59.472;18.048;2022-07-04T06:13:20;21.20;99.90
10282;DHT22;5186;59.472;18.048;2022-07-04T06:15:46;21.20;99.90
10282;DHT22;5186;59.472;18.048;2022-07-04T06:18:12;21.30;99.90
10282;DHT22;5186;59.472;18.048;2022-07-04T06:20:38;21.40;99.90
10282;DHT22;5186;59.472;18.048;2022-07-04T06:23:06;21.50;99.90
10282;DHT22;5186;59.472;18.048;2022-07-04T06:25:32;21.50;99.90
10282;DHT22;5186;59.472;18.048;2022-07-04T06:27:58;21.60;99.90
10282;DHT22;5186;59.472;18.048;2022-07-04T06:30:24;21.60;99.90
10282;DHT22;5186;59.472;18.048;2022-07-04T06:32:52;21.70;99.90
10282;DHT22;5186;59.472;18.048;2022-07-04T06:35:20;21.70;99.90
10282;DHT22;5186;59.472;18.048;2022-07-04T06:38:05;21.70;99.90
10282;DHT22;5186;59.472;18.048;2022-07-04T06:40:31;21.80;99.90
10282;DHT22;5186;59.472;18.048;2022-07-04T06:42:56;21.80;99.90
10282;DHT22;5186;59.472;18.048;2022-07-04T06:45:22;21.90;99.90
10282;DHT22;5186;59.472;18.048;2022-07-04T06:47:47;22.00;99.90
10282;DHT22;5186;59.472;18.048;2022-07-04T06:50:13;22.00;99.90
10282;DHT22;5186;59.472;18.048;2022-07-04T06:52:39;22.00;99.90
10282;DHT22;5186;59.472;18.048;2022-07-04T06:55:06;22.10;99.90
10282;DHT22;5186;59.472;18.048;2022-07-04T06:57:32;22.10;99.90
10282;DHT22;5186;59.472;18.048;2022-07-04T06:59:58;22.20;99.90
10282;DHT22;5186;59.472;18.048;2022-07-04T07:02:23;22.20;99.90
10282;DHT22;5186;59.472;18.048;2022-07-04T07:04:49;22.30;99.90
10282;DHT22;5186;59.472;18.048;2022-07-04T07:07:15;22.50;99.90
10282;DHT22;5186;59.472;18.048;2022-07-04T07:09:40;22.60;99.90
10282;DHT22;5186;59.472;18.048;2022-07-04T07:12:06;22.80;99.90
10282;DHT22;5186;59.472;18.048;2022-07-04T07:14:32;22.90;99.90
10282;DHT22;5186;59.472;18.048;2022-07-04T07:16:57;23.10;99.90
10282;DHT22;5186;59.472;18.048;2022-07-04T07:19:23;23.20;99.90
10282;DHT22;5186;59.472;18.048;2022-07-04T07:21:49;23.30;99.90
10282;DHT22;5186;59.472;18.048;2022-07-04T07:24:14;23.30;99.90
10282;DHT22;5186;59.472;18.048;2022-07-04T07:26:40;23.40;99.90
10282;DHT22;5186;59.472;18.048;2022-07-04T07:29:06;23.30;99.90
10282;DHT22;5186;59.472;18.048;2022-07-04T07:31:31;23.30;99.90
10282;DHT22;5186;59.472;18.048;2022-07-04T07:33:57;23.30;99.90
10282;DHT22;5186;59.472;18.048;2022-07-04T07:36:22;23.30;99.90
10282;DHT22;5186;59.472;18.048;2022-07-04T07:38:48;23.40;99.90
10282;DHT22;5186;59.472;18.048;2022-07-04T07:41:14;23.50;99.90
10282;DHT22;5186;59.472;18.048;2022-07-04T07:43:39;23.50;99.90
10282;DHT22;5186;59.472;18.048;2022-07-04T07:46:07;23.50;99.90
10282;DHT22;5186;59.472;18.048;2022-07-04T07:48:33;23.60;99.90
10282;DHT22;5186;59.472;18.048;2022-07-04T07:50:59;23.60;99.90
10282;DHT22;5186;59.472;18.048;2022-07-04T07:53:25;23.70;99.90
10282;DHT22;5186;59.472;18.048;2022-07-04T07:55:51;23.70;99.90
10282;DHT22;5186;59.472;18.048;2022-07-04T07:58:17;23.70;99.90
10282;DHT22;5186;59.472;18.048;2022-07-04T08:00:42;23.80;99.90
10282;DHT22;5186;59.472;18.048;2022-07-04T08:03:08;23.70;99.90
10282;DHT22;5186;59.472;18.048;2022-07-04T08:05:52;23.70;99.90
10282;DHT22;5186;59.472;18.048;2022-07-04T08:08:18;23.70;99.90
10282;DHT22;5186;59.472;18.048;2022-07-04T08:10:44;23.70;99.90
10282;DHT22;5186;59.472;18.048;2022-07-04T08:13:09;23.70;99.90
10282;DHT22;5186;59.472;18.048;2022-07-04T08:15:35;23.70;99.90
10282;DHT22;5186;59.472;18.048;2022-07-04T08:18:01;23.60;99.90
10282;DHT22;5186;59.472;18.048;2022-07-04T08:20:27;23.60;99.90
10282;DHT22;5186;59.472;18.048;2022-07-04T08:22:52;23.70;99.90
10282;DHT22;5186;59.472;18.048;2022-07-04T08:25:18;23.70;99.90
10282;DHT22;5186;59.472;18.048;2022-07-04T08:27:44;23.80;99.90
10282;DHT22;5186;59.472;18.048;2022-07-04T08:30:10;23.90;99.90
10282;DHT22;5186;59.472;18.048;2022-07-04T08:32:36;23.90;99.90
10282;DHT22;5186;59.472;18.048;2022-07-04T08:35:05;24.00;99.90
10282;DHT22;5186;59.472;18.048;2022-07-04T08:37:31;24.10;99.90
10282;DHT22;5186;59.472;18.048;2022-07-04T08:39:56;24.10;99.90
10282;DHT22;5186;59.472;18.048;2022-07-04T08:42:22;24.10;99.90
10282;DHT22;5186;59.472;18.048;2022-07-04T08:44:50;24.10;99.90
10282;DHT22;5186;59.472;18.048;2022-07-04T08:47:19;24.10;99.90
10282;DHT22;5186;59.472;18.048;2022-07-04T08:52:37;24.00;99.90
10282;DHT22;5186;59.472;18.048;2022-07-04T08:55:04;24.00;99.90
10282;DHT22;5186;59.472;18.048;2022-07-04T08:57:49;24.00;99.90
10282;DHT22;5186;59.472;18.048;2022-07-04T09:00:35;24.10;99.90
10282;DHT22;5186;59.472;18.048;2022-07-04T09:03:02;24.20;99.90
10282;DHT22;5186;59.472;18.048;2022-07-04T09:05:29;24.20;99.90
10282;DHT22;5186;59.472;18.048;2022-07-04T09:07:55;24.20;99.90
10282;DHT22;5186;59.472;18.048;2022-07-04T09:10:22;24.20;99.90
10282;DHT22;5186;59.472;18.048;2022-07-04T09:12:48;24.20;99.90
10282;DHT22;5186;59.472;18.048;2022-07-04T09:15:15;24.10;99.90
10282;DHT22;5186;59.472;18.048;2022-07-04T09:17:40;24.10;99.90
10282;DHT22;5186;59.472;18.048;2022-07-04T09:20:17;24.10;99.90
10282;DHT22;5186;59.472;18.048;2022-07-04T09:22:44;24.10;99.90
10282;DHT22;5186;59.472;18.048;2022-07-04T09:25:10;24.10;99.90
10282;DHT22;5186;59.472;18.048;2022-07-04T09:27:56;24.00;99.90
10282;DHT22;5186;59.472;18.048;2022-07-04T09:30:26;24.00;99.90
10282;DHT22;5186;59.472;18.048;2022-07-04T09:32:54;23.90;99.90
10282;DHT22;5186;59.472;18.048;2022-07-04T09:35:30;23.80;99.90
10282;DHT22;5186;59.472;18.048;2022-07-04T09:37:58;23.90;99.90
10282;DHT22;5186;59.472;18.048;2022-07-04T09:40:28;23.90;99.90
10282;DHT22;5186;59.472;18.048;2022-07-04T09:42:56;24.00;99.90
10282;DHT22;5186;59.472;18.048;2022-07-04T09:45:23;24.00;99.90
10282;DHT22;5186;59.472;18.048;2022-07-04T09:47:52;24.10;99.90
10282;DHT22;5186;59.472;18.048;2022-07-04T09:50:20;24.10;99.90
10282;DHT22;5186;59.472;18.048;2022-07-04T09:52:52;24.10;99.90
10282;DHT22;5186;59.472;18.048;2022-07-04T09:55:33;24.10;99.90
10282;DHT22;5186;59.472;18.048;2022-07-04T10:00:35;24.10;99.90
10282;DHT22;5186;59.472;18.048;2022-07-04T10:03:23;24.10;99.90
10282;DHT22;5186;59.472;18.048;2022-07-04T10:08:29;24.00;99.90
10282;DHT22;5186;59.472;18.048;2022-07-04T10:11:02;23.90;99.90
10282;DHT22;5186;59.472;18.048;2022-07-04T10:13:28;24.00;99.90
10282;DHT22;5186;59.472;18.048;2022-07-04T10:15:54;23.90;99.90
10282;DHT22;5186;59.472;18.048;2022-07-04T10:18:21;23.80;99.90
10282;DHT22;5186;59.472;18.048;2022-07-04T10:20:49;23.80;99.90
10282;DHT22;5186;59.472;18.048;2022-07-04T10:23:16;23.80;99.90
10282;DHT22;5186;59.472;18.048;2022-07-04T10:25:42;23.70;99.90
10282;DHT22;5186;59.472;18.048;2022-07-04T10:28:08;23.50;99.90
10282;DHT22;5186;59.472;18.048;2022-07-04T10:30:35;23.50;99.90
10282;DHT22;5186;59.472;18.048;2022-07-04T10:33:05;23.40;99.90
10282;DHT22;5186;59.472;18.048;2022-07-04T10:35:55;23.30;99.90
10282;DHT22;5186;59.472;18.048;2022-07-04T10:38:21;23.30;99.90
10282;DHT22;5186;59.472;18.048;2022-07-04T10:48:28;22.80;99.90
10282;DHT22;5186;59.472;18.048;2022-07-04T10:51:04;22.70;99.90
10282;DHT22;5186;59.472;18.048;2022-07-04T10:53:32;22.60;99.90
10282;DHT22;5186;59.472;18.048;2022-07-04T10:58:52;22.30;99.90
10282;DHT22;5186;59.472;18.048;2022-07-04T11:01:18;22.40;99.90
10282;DHT22;5186;59.472;18.048;2022-07-04T11:03:52;22.20;99.90
10282;DHT22;5186;59.472;18.048;2022-07-04T11:09:24;22.00;99.90
10282;DHT22;5186;59.472;18.048;2022-07-04T11:11:57;21.80;99.90
10282;DHT22;5186;59.472;18.048;2022-07-04T11:16:55;21.50;99.90
10282;DHT22;5186;59.472;18.048;2022-07-04T11:19:22;21.30;99.90
10282;DHT22;5186;59.472;18.048;2022-07-04T11:21:47;21.10;99.90
10282;DHT22;5186;59.472;18.048;2022-07-04T11:24:13;20.90;99.90
10282;DHT22;5186;59.472;18.048;2022-07-04T11:26:39;20.90;99.90
10282;DHT22;5186;59.472;18.048;2022-07-04T11:29:04;20.60;99.90
10282;DHT22;5186;59.472;18.048;2022-07-04T11:31:38;20.50;99.90
10282;DHT22;5186;59.472;18.048;2022-07-04T11:34:04;20.50;99.90
10282;DHT22;5186;59.472;18.048;2022-07-04T11:36:30;20.50;99.90
10282;DHT22;5186;59.472;18.048;2022-07-04T11:39:00;20.50;99.90
10282;DHT22;5186;59.472;18.048;2022-07-04T11:44:15;20.10;99.90
10282;DHT22;5186;59.472;18.048;2022-07-04T11:49:56;19.90;99.90
10282;DHT22;5186;59.472;18.048;2022-07-04T11:54:50;19.90;99.90
10282;DHT22;5186;59.472;18.048;2022-07-04T11:57:19;20.00;99.90
10282;DHT22;5186;59.472;18.048;2022-07-04T12:02:24;19.90;99.90
10282;DHT22;5186;59.472;18.048;2022-07-04T12:04:50;19.90;99.90
10282;DHT22;5186;59.472;18.048;2022-07-04T12:07:18;19.90;99.90
10282;DHT22;5186;59.472;18.048;2022-07-04T12:09:45;19.80;99.90
10282;DHT22;5186;59.472;18.048;2022-07-04T12:12:11;19.80;99.90
10282;DHT22;5186;59.472;18.048;2022-07-04T12:14:38;19.80;99.90
10282;DHT22;5186;59.472;18.048;2022-07-04T12:17:18;19.80;99.90
10282;DHT22;5186;59.472;18.048;2022-07-04T12:19:58;19.80;99.90
10282;DHT22;5186;59.472;18.048;2022-07-04T12:22:28;19.80;99.90
10282;DHT22;5186;59.472;18.048;2022-07-04T12:24:55;19.80;99.90
10282;DHT22;5186;59.472;18.048;2022-07-04T12:27:21;19.90;99.90
10282;DHT22;5186;59.472;18.048;2022-07-04T12:29:49;20.00;99.90
10282;DHT22;5186;59.472;18.048;2022-07-04T12:32:15;20.00;99.90
10282;DHT22;5186;59.472;18.048;2022-07-04T12:34:40;20.10;99.90
10282;DHT22;5186;59.472;18.048;2022-07-04T12:37:09;20.10;99.90
10282;DHT22;5186;59.472;18.048;2022-07-04T12:39:37;20.10;99.90
10282;DHT22;5186;59.472;18.048;2022-07-04T12:42:19;20.10;99.90
10282;DHT22;5186;59.472;18.048;2022-07-04T12:44:46;20.20;99.90
10282;DHT22;5186;59.472;18.048;2022-07-04T12:47:15;20.20;99.90
10282;DHT22;5186;59.472;18.048;2022-07-04T12:49:46;20.30;99.90
10282;DHT22;5186;59.472;18.048;2022-07-04T12:52:13;20.30;99.90
10282;DHT22;5186;59.472;18.048;2022-07-04T12:54:40;20.40;99.90
10282;DHT22;5186;59.472;18.048;2022-07-04T12:59:33;20.60;99.90
10282;DHT22;5186;59.472;18.048;2022-07-04T13:01:59;20.70;99.90
10282;DHT22;5186;59.472;18.048;2022-07-04T13:04:24;20.70;99.90
10282;DHT22;5186;59.472;18.048;2022-07-04T13:06:50;20.70;99.90
10282;DHT22;5186;59.472;18.048;2022-07-04T13:09:16;20.70;99.90
10282;DHT22;5186;59.472;18.048;2022-07-04T13:11:42;20.80;99.90
10282;DHT22;5186;59.472;18.048;2022-07-04T13:14:26;20.70;99.90
10282;DHT22;5186;59.472;18.048;2022-07-04T13:16:52;20.80;99.90
10282;DHT22;5186;59.472;18.048;2022-07-04T13:19:18;20.80;99.90
10282;DHT22;5186;59.472;18.048;2022-07-04T13:21:45;20.90;99.90
10282;DHT22;5186;59.472;18.048;2022-07-04T13:24:12;21.00;99.90
10282;DHT22;5186;59.472;18.048;2022-07-04T13:26:38;21.10;99.90
10282;DHT22;5186;59.472;18.048;2022-07-04T13:29:04;21.10;99.90
10282;DHT22;5186;59.472;18.048;2022-07-04T13:31:30;21.10;99.90
10282;DHT22;5186;59.472;18.048;2022-07-04T13:33:56;21.20;99.90
10282;DHT22;5186;59.472;18.048;2022-07-04T13:36:21;21.30;99.90
10282;DHT22;5186;59.472;18.048;2022-07-04T13:38:47;21.30;99.90
10282;DHT22;5186;59.472;18.048;2022-07-04T13:41:13;21.30;99.90
10282;DHT22;5186;59.472;18.048;2022-07-04T13:43:39;21.40;99.90
10282;DHT22;5186;59.472;18.048;2022-07-04T13:46:05;21.40;99.90
10282;DHT22;5186;59.472;18.048;2022-07-04T13:48:31;21.50;99.90
10282;DHT22;5186;59.472;18.048;2022-07-04T13:50:56;21.50;99.90
10282;DHT22;5186;59.472;18.048;2022-07-04T13:53:22;21.40;99.90
10282;DHT22;5186;59.472;18.048;2022-07-04T13:55:47;21.50;99.90
10282;DHT22;5186;59.472;18.048;2022-07-04T13:58:13;21.50;99.90
10282;DHT22;5186;59.472;18.048;2022-07-04T14:00:39;21.60;99.90
10282;DHT22;5186;59.472;18.048;2022-07-04T14:03:10;21.60;99.90
10282;DHT22;5186;59.472;18.048;2022-07-04T14:05:36;21.80;99.90
10282;DHT22;5186;59.472;18.048;2022-07-04T14:08:02;21.80;99.90
10282;DHT22;5186;59.472;18.048;2022-07-04T14:10:28;21.80;99.90
10282;DHT22;5186;59.472;18.048;2022-07-04T14:12:53;21.80;99.90
10282;DHT22;5186;59.472;18.048;2022-07-04T14:15:19;21.70;99.90
10282;DHT22;5186;59.472;18.048;2022-07-04T14:17:45;21.60;99.90
10282;DHT22;5186;59.472;18.048;2022-07-04T14:20:12;21.60;99.90
10282;DHT22;5186;59.472;18.048;2022-07-04T14:22:38;21.50;99.90
10282;DHT22;5186;59.472;18.048;2022-07-04T14:25:05;21.50;99.90
10282;DHT22;5186;59.472;18.048;2022-07-04T14:27:31;21.40;99.90
10282;DHT22;5186;59.472;18.048;2022-07-04T14:29:57;21.30;99.90
10282;DHT22;5186;59.472;18.048;2022-07-04T14:32:23;21.20;99.90
10282;DHT22;5186;59.472;18.048;2022-07-04T14:34:48;21.10;99.90
10282;DHT22;5186;59.472;18.048;2022-07-04T14:37:14;21.10;99.90
10282;DHT22;5186;59.472;18.048;2022-07-04T14:39:40;21.00;99.90
10282;DHT22;5186;59.472;18.048;2022-07-04T14:42:06;21.00;99.90
10282;DHT22;5186;59.472;18.048;2022-07-04T14:44:31;20.90;99.90
10282;DHT22;5186;59.472;18.048;2022-07-04T14:47:01;20.80;99.90
10282;DHT22;5186;59.472;18.048;2022-07-04T14:49:27;20.60;99.90
10282;DHT22;5186;59.472;18.048;2022-07-04T14:51:52;20.40;99.90
10282;DHT22;5186;59.472;18.048;2022-07-04T14:54:18;20.40;99.90
10282;DHT22;5186;59.472;18.048;2022-07-04T14:56:44;20.40;99.90
10282;DHT22;5186;59.472;18.048;2022-07-04T14:59:09;20.40;99.90
10282;DHT22;5186;59.472;18.048;2022-07-04T15:01:35;20.40;99.90
10282;DHT22;5186;59.472;18.048;2022-07-04T15:04:01;20.30;99.90
10282;DHT22;5186;59.472;18.048;2022-07-04T15:06:26;20.30;99.90
10282;DHT22;5186;59.472;18.048;2022-07-04T15:08:52;20.20;99.90
10282;DHT22;5186;59.472;18.048;2022-07-04T15:11:18;20.30;99.90
10282;DHT22;5186;59.472;18.048;2022-07-04T15:13:43;20.20;99.90
10282;DHT22;5186;59.472;18.048;2022-07-04T15:16:09;20.20;99.90
10282;DHT22;5186;59.472;18.048;2022-07-04T15:18:35;20.20;99.90
10282;DHT22;5186;59.472;18.048;2022-07-04T15:21:00;20.10;99.90
10282;DHT22;5186;59.472;18.048;2022-07-04T15:23:45;20.10;99.90
10282;DHT22;5186;59.472;18.048;2022-07-04T15:26:29;20.00;99.90
10282;DHT22;5186;59.472;18.048;2022-07-04T15:28:55;19.90;99.90
10282;DHT22;5186;59.472;18.048;2022-07-04T15:31:21;19.90;99.90
10282;DHT22;5186;59.472;18.048;2022-07-04T15:33:46;19.90;99.90
10282;DHT22;5186;59.472;18.048;2022-07-04T15:36:12;19.80;99.90
10282;DHT22;5186;59.472;18.048;2022-07-04T15:38:38;19.80;99.90
10282;DHT22;5186;59.472;18.048;2022-07-04T15:41:03;19.70;99.90
10282;DHT22;5186;59.472;18.048;2022-07-04T15:43:30;19.80;99.90
10282;DHT22;5186;59.472;18.048;2022-07-04T15:45:56;19.70;99.90
10282;DHT22;5186;59.472;18.048;2022-07-04T15:48:23;19.60;99.90
10282;DHT22;5186;59.472;18.048;2022-07-04T15:50:49;19.60;99.90
10282;DHT22;5186;59.472;18.048;2022-07-04T15:53:14;19.70;99.90
10282;DHT22;5186;59.472;18.048;2022-07-04T15:55:40;19.70;99.90
10282;DHT22;5186;59.472;18.048;2022-07-04T15:58:05;19.80;99.90
10282;DHT22;5186;59.472;18.048;2022-07-04T16:00:31;19.80;99.90
10282;DHT22;5186;59.472;18.048;2022-07-04T16:02:57;19.70;99.90
10282;DHT22;5186;59.472;18.048;2022-07-04T16:05:22;19.60;99.90